sensor_id;sensor_type;location;lat;lon;timestamp;temperature;humidity
83553;DHT22;73510;50.866;5.420;2024-03-07T00:00:42;6.40;64.70
83553;DHT22;73510;50.866;5.420;2024-03-07T00:03:08;6.40;64.80
83553;DHT22;73510;50.866;5.420;2024-03-07T00:05:34;6.40;64.70
83553;DHT22;73510;50.866;5.420;2024-03-07T00:08:00;6.30;64.90
83553;DHT22;73510;50.866;5.420;2024-03-07T00:10:26;6.30;64.80
83553;DHT22;73510;50.866;5.420;2024-03-07T00:12:51;6.30;65.10
83553;DHT22;73510;50.866;5.420;2024-03-07T00:15:17;6.20;64.90
83553;DHT22;73510;50.866;5.420;2024-03-07T00:17:43;6.20;65.00
83553;DHT22;73510;50.866;5.420;2024-03-07T00:20:09;6.20;65.10
83553;DHT22;73510;50.866;5.420;2024-03-07T00:22:43;6.20;65.20
83553;DHT22;73510;50.866;5.420;2024-03-07T00:25:09;6.10;65.00
83553;DHT22;73510;50.866;5.420;2024-03-07T00:27:35;6.10;65.10
83553;DHT22;73510;50.866;5.420;2024-03-07T00:30:03;6.10;65.30
83553;DHT22;73510;50.866;5.420;2024-03-07T00:32:30;6.10;65.20
83553;DHT22;73510;50.866;5.420;2024-03-07T00:35:01;6.00;65.50
83553;DHT22;73510;50.866;5.420;2024-03-07T00:37:27;6.00;65.60
83553;DHT22;73510;50.866;5.420;2024-03-07T00:39:52;6.00;65.70
83553;DHT22;73510;50.866;5.420;2024-03-07T00:42:18;6.00;65.60
83553;DHT22;73510;50.866;5.420;2024-03-07T00:44:44;6.00;65.60
83553;DHT22;73510;50.866;5.420;2024-03-07T00:47:10;5.90;65.60
83553;DHT22;73510;50.866;5.420;2024-03-07T00:49:36;5.90;65.50
83553;DHT22;73510;50.866;5.420;2024-03-07T00:52:02;5.90;65.60
83553;DHT22;73510;50.866;5.420;2024-03-07T00:54:28;5.90;65.80
83553;DHT22;73510;50.866;5.420;2024-03-07T00:56:53;5.80;65.50
83553;DHT22;73510;50.866;5.420;2024-03-07T00:59:20;5.80;65.60
83553;DHT22;73510;50.866;5.420;2024-03-07T01:01:46;5.80;65.40
83553;DHT22;73510;50.866;5.420;2024-03-07T01:04:12;5.70;65.20
83553;DHT22;73510;50.866;5.420;2024-03-07T01:06:37;5.70;65.40
83553;DHT22;73510;50.866;5.420;2024-03-07T01:09:06;5.70;65.30
83553;DHT22;73510;50.866;5.420;2024-03-07T01:11:40;5.70;65.50
83553;DHT22;73510;50.866;5.420;2024-03-07T01:14:05;5.70;65.60
83553;DHT22;73510;50.866;5.420;2024-03-07T01:16:31;5.60;65.60
83553;DHT22;73510;50.866;5.420;2024-03-07T01:18:57;5.60;65.60
83553;DHT22;73510;50.866;5.420;2024-03-07T01:21:22;5.60;65.80
83553;DHT22;73510;50.866;5.420;2024-03-07T01:23:49;5.60;65.90
83553;DHT22;73510;50.866;5.420;2024-03-07T01:26:15;5.50;65.80
83553;DHT22;73510;50.866;5.420;2024-03-07T01:28:41;5.50;65.90
83553;DHT22;73510;50.866;5.420;2024-03-07T01:31:07;5.50;66.00
83553;DHT22;73510;50.866;5.420;2024-03-07T01:33:33;5.50;65.80
83553;DHT22;73510;50.866;5.420;2024-03-07T01:35:59;5.50;66.00
83553;DHT22;73510;50.866;5.420;2024-03-07T01:38:24;5.50;66.00
83553;DHT22;73510;50.866;5.420;2024-03-07T01:40:51;5.50;66.20
83553;DHT22;73510;50.866;5.420;2024-03-07T01:43:16;5.50;66.10
83553;DHT22;73510;50.866;5.420;2024-03-07T01:45:42;5.50;66.30
83553;DHT22;73510;50.866;5.420;2024-03-07T01:48:12;5.50;66.30
83553;DHT22;73510;50.866;5.420;2024-03-07T01:50:41;5.40;66.10
83553;DHT22;73510;50.866;5.420;2024-03-07T01:53:09;5.30;66.50
83553;DHT22;73510;50.866;5.420;2024-03-07T01:55:37;5.30;66.50
83553;DHT22;73510;50.866;5.420;2024-03-07T01:58:04;5.30;66.10
83553;DHT22;73510;50.866;5.420;2024-03-07T02:00:31;5.30;66.50
83553;DHT22;73510;50.866;5.420;2024-03-07T02:02:56;5.30;66.70
83553;DHT22;73510;50.866;5.420;2024-03-07T02:05:23;5.30;67.00
83553;DHT22;73510;50.866;5.420;2024-03-07T02:07:50;5.30;66.50
83553;DHT22;73510;50.866;5.420;2024-03-07T02:10:16;5.20;66.30
83553;DHT22;73510;50.866;5.420;2024-03-07T02:12:43;5.20;66.40
83553;DHT22;73510;50.866;5.420;2024-03-07T02:15:09;5.20;66.90
83553;DHT22;73510;50.866;5.420;2024-03-07T02:17:36;5.10;66.90
83553;DHT22;73510;50.866;5.420;2024-03-07T02:20:02;5.10;66.60
83553;DHT22;73510;50.866;5.420;2024-03-07T02:22:29;5.10;66.20
83553;DHT22;73510;50.866;5.420;2024-03-07T02:24:55;5.10;66.10
83553;DHT22;73510;50.866;5.420;2024-03-07T02:27:21;5.00;66.20
83553;DHT22;73510;50.866;5.420;2024-03-07T02:29:47;5.00;66.20
83553;DHT22;73510;50.866;5.420;2024-03-07T02:32:14;5.00;66.20
83553;DHT22;73510;50.866;5.420;2024-03-07T02:34:40;5.00;66.60
83553;DHT22;73510;50.866;5.420;2024-03-07T02:37:05;5.00;66.20
83553;DHT22;73510;50.866;5.420;2024-03-07T02:39:31;5.00;66.30
83553;DHT22;73510;50.866;5.420;2024-03-07T02:41:57;5.00;67.90
83553;DHT22;73510;50.866;5.420;2024-03-07T02:44:22;4.90;66.50
83553;DHT22;73510;50.866;5.420;2024-03-07T02:46:48;4.90;66.60
83553;DHT22;73510;50.866;5.420;2024-03-07T02:49:14;4.90;66.30
83553;DHT22;73510;50.866;5.420;2024-03-07T02:51:40;4.90;66.50
83553;DHT22;73510;50.866;5.420;2024-03-07T02:54:07;4.80;66.50
83553;DHT22;73510;50.866;5.420;2024-03-07T02:56:33;4.80;66.50
83553;DHT22;73510;50.866;5.420;2024-03-07T02:58:59;4.80;66.60
83553;DHT22;73510;50.866;5.420;2024-03-07T03:01:25;4.70;66.60
83553;DHT22;73510;50.866;5.420;2024-03-07T03:03:51;4.70;66.80
83553;DHT22;73510;50.866;5.420;2024-03-07T03:06:17;4.70;67.20
83553;DHT22;73510;50.866;5.420;2024-03-07T03:08:46;4.70;67.10
83553;DHT22;73510;50.866;5.420;2024-03-07T03:11:12;4.70;67.20
83553;DHT22;73510;50.866;5.420;2024-03-07T03:13:42;4.70;67.20
83553;DHT22;73510;50.866;5.420;2024-03-07T03:16:08;4.70;67.10
83553;DHT22;73510;50.866;5.420;2024-03-07T03:18:35;4.60;67.50
83553;DHT22;73510;50.866;5.420;2024-03-07T03:21:02;4.60;67.20
83553;DHT22;73510;50.866;5.420;2024-03-07T03:23:30;4.60;67.30
83553;DHT22;73510;50.866;5.420;2024-03-07T03:25:56;4.60;67.50
83553;DHT22;73510;50.866;5.420;2024-03-07T03:28:22;4.60;68.10
83553;DHT22;73510;50.866;5.420;2024-03-07T03:30:49;4.50;67.80
83553;DHT22;73510;50.866;5.420;2024-03-07T03:33:17;4.50;67.60
83553;DHT22;73510;50.866;5.420;2024-03-07T03:35:43;4.50;67.50
83553;DHT22;73510;50.866;5.420;2024-03-07T03:38:09;4.50;67.50
83553;DHT22;73510;50.866;5.420;2024-03-07T03:40:35;4.50;67.10
83553;DHT22;73510;50.866;5.420;2024-03-07T03:43:01;4.40;67.10
83553;DHT22;73510;50.866;5.420;2024-03-07T03:45:27;4.40;67.00
83553;DHT22;73510;50.866;5.420;2024-03-07T03:47:53;4.40;67.00
83553;DHT22;73510;50.866;5.420;2024-03-07T03:50:19;4.40;66.70
83553;DHT22;73510;50.866;5.420;2024-03-07T03:52:45;4.30;66.60
83553;DHT22;73510;50.866;5.420;2024-03-07T03:55:11;4.30;66.90
83553;DHT22;73510;50.866;5.420;2024-03-07T03:57:39;4.30;66.60
83553;DHT22;73510;50.866;5.420;2024-03-07T04:00:06;4.20;66.60
83553;DHT22;73510;50.866;5.420;2024-03-07T04:02:42;4.20;66.40
83553;DHT22;73510;50.866;5.420;2024-03-07T04:05:10;4.20;66.60
83553;DHT22;73510;50.866;5.420;2024-03-07T04:07:37;4.20;66.60
83553;DHT22;73510;50.866;5.420;2024-03-07T04:10:03;4.20;66.40
83553;DHT22;73510;50.866;5.420;2024-03-07T04:12:32;4.10;66.50
83553;DHT22;73510;50.866;5.420;2024-03-07T04:14:58;4.10;66.60
83553;DHT22;73510;50.866;5.420;2024-03-07T04:17:24;4.10;66.40
83553;DHT22;73510;50.866;5.420;2024-03-07T04:19:50;4.10;66.70
83553;DHT22;73510;50.866;5.420;2024-03-07T04:22:16;4.00;66.40
83553;DHT22;73510;50.866;5.420;2024-03-07T04:24:45;4.00;66.20
83553;DHT22;73510;50.866;5.420;2024-03-07T04:27:11;4.00;66.30
83553;DHT22;73510;50.866;5.420;2024-03-07T04:29:37;3.90;66.40
83553;DHT22;73510;50.866;5.420;2024-03-07T04:32:04;3.90;66.50
83553;DHT22;73510;50.866;5.420;2024-03-07T04:34:31;3.90;66.20
83553;DHT22;73510;50.866;5.420;2024-03-07T04:37:00;3.90;66.30
83553;DHT22;73510;50.866;5.420;2024-03-07T04:39:32;3.90;66.30
83553;DHT22;73510;50.866;5.420;2024-03-07T04:42:04;3.90;66.30
83553;DHT22;73510;50.866;5.420;2024-03-07T04:44:32;3.90;66.20
83553;DHT22;73510;50.866;5.420;2024-03-07T04:46:59;3.80;66.30
83553;DHT22;73510;50.866;5.420;2024-03-07T04:49:27;3.80;66.50
83553;DHT22;73510;50.866;5.420;2024-03-07T04:51:54;3.70;66.50
83553;DHT22;73510;50.866;5.420;2024-03-07T04:54:21;3.70;66.50
83553;DHT22;73510;50.866;5.420;2024-03-07T04:56:48;3.70;66.80
83553;DHT22;73510;50.866;5.420;2024-03-07T04:59:15;3.70;67.10
83553;DHT22;73510;50.866;5.420;2024-03-07T05:01:42;3.70;67.20
83553;DHT22;73510;50.866;5.420;2024-03-07T05:04:08;3.70;67.20
83553;DHT22;73510;50.866;5.420;2024-03-07T05:06:34;3.70;67.10
83553;DHT22;73510;50.866;5.420;2024-03-07T05:09:03;3.70;67.20
83553;DHT22;73510;50.866;5.420;2024-03-07T05:11:30;3.70;67.50
83553;DHT22;73510;50.866;5.420;2024-03-07T05:13:56;3.60;67.10
83553;DHT22;73510;50.866;5.420;2024-03-07T05:16:30;3.60;67.30
83553;DHT22;73510;50.866;5.420;2024-03-07T05:18:57;3.60;67.20
83553;DHT22;73510;50.866;5.420;2024-03-07T05:21:25;3.60;67.20
83553;DHT22;73510;50.866;5.420;2024-03-07T05:24:00;3.60;67.80
83553;DHT22;73510;50.866;5.420;2024-03-07T05:26:27;3.60;67.60
83553;DHT22;73510;50.866;5.420;2024-03-07T05:28:53;3.60;67.50
83553;DHT22;73510;50.866;5.420;2024-03-07T05:31:22;3.60;68.00
83553;DHT22;73510;50.866;5.420;2024-03-07T05:33:48;3.60;68.20
83553;DHT22;73510;50.866;5.420;2024-03-07T05:36:13;3.60;68.30
83553;DHT22;73510;50.866;5.420;2024-03-07T05:38:42;3.50;68.40
83553;DHT22;73510;50.866;5.420;2024-03-07T05:41:11;3.60;68.30
83553;DHT22;73510;50.866;5.420;2024-03-07T05:43:40;3.50;67.80
83553;DHT22;73510;50.866;5.420;2024-03-07T05:46:06;3.50;68.10
83553;DHT22;73510;50.866;5.420;2024-03-07T05:48:35;3.50;67.70
83553;DHT22;73510;50.866;5.420;2024-03-07T05:51:01;3.50;67.50
83553;DHT22;73510;50.866;5.420;2024-03-07T05:53:27;3.50;67.40
83553;DHT22;73510;50.866;5.420;2024-03-07T05:55:53;3.40;67.50
83553;DHT22;73510;50.866;5.420;2024-03-07T05:58:18;3.50;67.70
83553;DHT22;73510;50.866;5.420;2024-03-07T06:00:47;3.40;68.00
83553;DHT22;73510;50.866;5.420;2024-03-07T06:03:19;3.40;68.00
83553;DHT22;73510;50.866;5.420;2024-03-07T06:05:49;3.30;67.80
83553;DHT22;73510;50.866;5.420;2024-03-07T06:08:16;3.30;68.20
83553;DHT22;73510;50.866;5.420;2024-03-07T06:10:46;3.40;68.30
83553;DHT22;73510;50.866;5.420;2024-03-07T06:13:14;3.40;68.20
83553;DHT22;73510;50.866;5.420;2024-03-07T06:15:43;3.40;68.50
83553;DHT22;73510;50.866;5.420;2024-03-07T06:18:09;3.40;68.20
83553;DHT22;73510;50.866;5.420;2024-03-07T06:20:36;3.50;68.70
83553;DHT22;73510;50.866;5.420;2024-03-07T06:23:03;3.50;68.40
83553;DHT22;73510;50.866;5.420;2024-03-07T06:25:32;3.50;68.70
83553;DHT22;73510;50.866;5.420;2024-03-07T06:28:16;3.50;68.60
83553;DHT22;73510;50.866;5.420;2024-03-07T06:30:45;3.50;69.50
83553;DHT22;73510;50.866;5.420;2024-03-07T06:33:11;3.60;70.10
83553;DHT22;73510;50.866;5.420;2024-03-07T06:35:37;3.60;69.90
83553;DHT22;73510;50.866;5.420;2024-03-07T06:38:07;3.70;69.90
83553;DHT22;73510;50.866;5.420;2024-03-07T06:40:37;3.70;69.70
83553;DHT22;73510;50.866;5.420;2024-03-07T06:43:03;3.80;69.50
83553;DHT22;73510;50.866;5.420;2024-03-07T06:45:33;3.90;69.70
83553;DHT22;73510;50.866;5.420;2024-03-07T06:48:00;4.00;69.70
83553;DHT22;73510;50.866;5.420;2024-03-07T06:50:26;4.10;69.40
83553;DHT22;73510;50.866;5.420;2024-03-07T06:52:54;4.10;69.00
83553;DHT22;73510;50.866;5.420;2024-03-07T06:55:21;4.30;68.70
83553;DHT22;73510;50.866;5.420;2024-03-07T06:57:47;4.30;68.60
83553;DHT22;73510;50.866;5.420;2024-03-07T07:00:14;4.50;68.20
83553;DHT22;73510;50.866;5.420;2024-03-07T07:02:44;4.50;68.30
83553;DHT22;73510;50.866;5.420;2024-03-07T07:05:10;4.60;68.60
83553;DHT22;73510;50.866;5.420;2024-03-07T07:07:41;4.70;68.50
83553;DHT22;73510;50.866;5.420;2024-03-07T07:10:08;4.90;68.30
83553;DHT22;73510;50.866;5.420;2024-03-07T07:12:44;5.00;68.00
83553;DHT22;73510;50.866;5.420;2024-03-07T07:15:11;5.30;67.50
83553;DHT22;73510;50.866;5.420;2024-03-07T07:17:38;5.70;66.80
83553;DHT22;73510;50.866;5.420;2024-03-07T07:20:04;6.20;66.20
83553;DHT22;73510;50.866;5.420;2024-03-07T07:22:38;6.80;64.70
83553;DHT22;73510;50.866;5.420;2024-03-07T07:25:05;7.50;63.50
83553;DHT22;73510;50.866;5.420;2024-03-07T07:27:35;8.10;62.30
83553;DHT22;73510;50.866;5.420;2024-03-07T07:30:01;8.70;61.10
83553;DHT22;73510;50.866;5.420;2024-03-07T07:32:26;9.20;60.00
83553;DHT22;73510;50.866;5.420;2024-03-07T07:34:53;9.80;59.40
83553;DHT22;73510;50.866;5.420;2024-03-07T07:37:19;10.40;58.70
83553;DHT22;73510;50.866;5.420;2024-03-07T07:39:45;10.90;58.10
83553;DHT22;73510;50.866;5.420;2024-03-07T07:42:11;11.40;57.80
83553;DHT22;73510;50.866;5.420;2024-03-07T07:44:37;11.90;56.50
83553;DHT22;73510;50.866;5.420;2024-03-07T07:47:03;12.30;56.50
83553;DHT22;73510;50.866;5.420;2024-03-07T07:49:31;12.80;56.00
83553;DHT22;73510;50.866;5.420;2024-03-07T07:51:57;13.20;55.70
83553;DHT22;73510;50.866;5.420;2024-03-07T07:54:22;13.60;54.70
83553;DHT22;73510;50.866;5.420;2024-03-07T07:56:50;13.90;54.30
83553;DHT22;73510;50.866;5.420;2024-03-07T07:59:16;14.10;53.70
83553;DHT22;73510;50.866;5.420;2024-03-07T08:01:42;14.50;53.50
83553;DHT22;73510;50.866;5.420;2024-03-07T08:04:08;14.90;52.90
83553;DHT22;73510;50.866;5.420;2024-03-07T08:06:36;15.10;52.30
83553;DHT22;73510;50.866;5.420;2024-03-07T08:09:01;15.60;51.90
83553;DHT22;73510;50.866;5.420;2024-03-07T08:11:29;16.00;51.90
83553;DHT22;73510;50.866;5.420;2024-03-07T08:13:54;16.40;50.50
83553;DHT22;73510;50.866;5.420;2024-03-07T08:16:21;16.80;50.50
83553;DHT22;73510;50.866;5.420;2024-03-07T08:18:47;17.20;50.20
83553;DHT22;73510;50.866;5.420;2024-03-07T08:21:12;17.60;49.70
83553;DHT22;73510;50.866;5.420;2024-03-07T08:23:38;17.80;48.70
83553;DHT22;73510;50.866;5.420;2024-03-07T08:26:04;18.10;48.50
83553;DHT22;73510;50.866;5.420;2024-03-07T08:28:31;18.50;48.70
83553;DHT22;73510;50.866;5.420;2024-03-07T08:30:57;18.80;47.60
83553;DHT22;73510;50.866;5.420;2024-03-07T08:33:24;19.00;47.60
83553;DHT22;73510;50.866;5.420;2024-03-07T08:35:51;19.30;47.20
83553;DHT22;73510;50.866;5.420;2024-03-07T08:38:18;19.50;46.30
83553;DHT22;73510;50.866;5.420;2024-03-07T08:40:44;19.70;46.70
83553;DHT22;73510;50.866;5.420;2024-03-07T08:43:09;20.00;45.90
83553;DHT22;73510;50.866;5.420;2024-03-07T08:45:35;20.40;46.20
83553;DHT22;73510;50.866;5.420;2024-03-07T08:48:03;20.50;45.00
83553;DHT22;73510;50.866;5.420;2024-03-07T08:50:34;20.60;45.60
83553;DHT22;73510;50.866;5.420;2024-03-07T08:53:00;20.80;45.10
83553;DHT22;73510;50.866;5.420;2024-03-07T08:55:26;21.10;45.50
83553;DHT22;73510;50.866;5.420;2024-03-07T08:57:53;21.40;44.90
83553;DHT22;73510;50.866;5.420;2024-03-07T09:00:19;21.50;43.70
83553;DHT22;73510;50.866;5.420;2024-03-07T09:02:53;21.50;44.00
83553;DHT22;73510;50.866;5.420;2024-03-07T09:05:21;21.70;44.40
83553;DHT22;73510;50.866;5.420;2024-03-07T09:07:48;21.90;43.30
83553;DHT22;73510;50.866;5.420;2024-03-07T09:10:14;22.10;43.70
83553;DHT22;73510;50.866;5.420;2024-03-07T09:12:40;22.10;42.70
83553;DHT22;73510;50.866;5.420;2024-03-07T09:15:07;22.20;43.90
83553;DHT22;73510;50.866;5.420;2024-03-07T09:17:33;22.60;43.10
83553;DHT22;73510;50.866;5.420;2024-03-07T09:19:58;22.80;42.60
83553;DHT22;73510;50.866;5.420;2024-03-07T09:22:24;23.00;42.00
83553;DHT22;73510;50.866;5.420;2024-03-07T09:24:50;23.00;41.70
83553;DHT22;73510;50.866;5.420;2024-03-07T09:27:17;22.90;42.00
83553;DHT22;73510;50.866;5.420;2024-03-07T09:29:45;23.00;42.00
83553;DHT22;73510;50.866;5.420;2024-03-07T09:32:13;23.30;42.10
83553;DHT22;73510;50.866;5.420;2024-03-07T09:34:39;23.50;41.20
83553;DHT22;73510;50.866;5.420;2024-03-07T09:37:04;23.60;41.30
83553;DHT22;73510;50.866;5.420;2024-03-07T09:39:32;23.90;41.20
83553;DHT22;73510;50.866;5.420;2024-03-07T09:42:01;24.00;40.70
83553;DHT22;73510;50.866;5.420;2024-03-07T09:44:28;24.10;40.50
83553;DHT22;73510;50.866;5.420;2024-03-07T09:46:57;24.00;40.90
83553;DHT22;73510;50.866;5.420;2024-03-07T09:49:25;24.00;40.80
83553;DHT22;73510;50.866;5.420;2024-03-07T09:51:52;24.10;40.20
83553;DHT22;73510;50.866;5.420;2024-03-07T09:54:26;24.20;40.70
83553;DHT22;73510;50.866;5.420;2024-03-07T09:56:53;24.00;40.60
83553;DHT22;73510;50.866;5.420;2024-03-07T09:59:20;24.20;40.40
83553;DHT22;73510;50.866;5.420;2024-03-07T10:01:51;24.20;40.90
83553;DHT22;73510;50.866;5.420;2024-03-07T10:04:29;24.20;40.70
83553;DHT22;73510;50.866;5.420;2024-03-07T10:06:55;24.20;40.40
83553;DHT22;73510;50.866;5.420;2024-03-07T10:09:22;23.50;40.80
83553;DHT22;73510;50.866;5.420;2024-03-07T10:11:59;22.90;40.90
83553;DHT22;73510;50.866;5.420;2024-03-07T10:14:25;22.80;41.50
83553;DHT22;73510;50.866;5.420;2024-03-07T10:16:54;22.90;41.50
83553;DHT22;73510;50.866;5.420;2024-03-07T10:19:22;23.00;41.10
83553;DHT22;73510;50.866;5.420;2024-03-07T10:21:48;23.10;41.10
83553;DHT22;73510;50.866;5.420;2024-03-07T10:24:13;23.50;40.80
83553;DHT22;73510;50.866;5.420;2024-03-07T10:26:40;23.60;40.90
83553;DHT22;73510;50.866;5.420;2024-03-07T10:29:07;24.00;40.40
83553;DHT22;73510;50.866;5.420;2024-03-07T10:31:35;24.10;40.00
83553;DHT22;73510;50.866;5.420;2024-03-07T10:34:04;23.90;40.50
83553;DHT22;73510;50.866;5.420;2024-03-07T10:36:31;23.60;40.40
83553;DHT22;73510;50.866;5.420;2024-03-07T10:39:03;23.60;41.60
83553;DHT22;73510;50.866;5.420;2024-03-07T10:41:50;23.80;40.30
83553;DHT22;73510;50.866;5.420;2024-03-07T10:44:20;24.10;40.30
83553;DHT22;73510;50.866;5.420;2024-03-07T10:46:54;24.40;39.20
83553;DHT22;73510;50.866;5.420;2024-03-07T10:49:21;24.00;39.20
83553;DHT22;73510;50.866;5.420;2024-03-07T10:52:22;23.40;39.80
83553;DHT22;73510;50.866;5.420;2024-03-07T10:57:46;21.40;41.10
83553;DHT22;73510;50.866;5.420;2024-03-07T11:00:14;20.50;41.20
83553;DHT22;73510;50.866;5.420;2024-03-07T11:02:59;19.50;42.10
83553;DHT22;73510;50.866;5.420;2024-03-07T11:05:26;18.80;43.10
83553;DHT22;73510;50.866;5.420;2024-03-07T11:07:58;18.30;43.60
83553;DHT22;73510;50.866;5.420;2024-03-07T11:10:29;18.00;44.10
83553;DHT22;73510;50.866;5.420;2024-03-07T11:12:56;17.60;44.80
83553;DHT22;73510;50.866;5.420;2024-03-07T11:15:24;17.20;45.10
83553;DHT22;73510;50.866;5.420;2024-03-07T11:17:52;16.80;45.40
83553;DHT22;73510;50.866;5.420;2024-03-07T11:20:26;16.50;45.70
83553;DHT22;73510;50.866;5.420;2024-03-07T11:22:53;16.10;45.70
83553;DHT22;73510;50.866;5.420;2024-03-07T11:25:22;15.90;46.00
83553;DHT22;73510;50.866;5.420;2024-03-07T11:30:19;15.70;46.80
83553;DHT22;73510;50.866;5.420;2024-03-07T11:32:47;15.70;47.60
83553;DHT22;73510;50.866;5.420;2024-03-07T11:35:15;15.60;46.40
83553;DHT22;73510;50.866;5.420;2024-03-07T11:37:43;15.50;46.50
83553;DHT22;73510;50.866;5.420;2024-03-07T11:40:12;15.40;46.70
83553;DHT22;73510;50.866;5.420;2024-03-07T11:42:48;15.20;47.20
83553;DHT22;73510;50.866;5.420;2024-03-07T11:45:15;15.00;48.00
83553;DHT22;73510;50.866;5.420;2024-03-07T11:47:59;14.90;47.80
83553;DHT22;73510;50.866;5.420;2024-03-07T11:50:39;14.60;47.00
83553;DHT22;73510;50.866;5.420;2024-03-07T11:53:06;14.60;47.80
83553;DHT22;73510;50.866;5.420;2024-03-07T11:55:39;14.50;47.60
83553;DHT22;73510;50.866;5.420;2024-03-07T11:58:18;14.40;47.90
83553;DHT22;73510;50.866;5.420;2024-03-07T12:00:48;14.30;48.40
83553;DHT22;73510;50.866;5.420;2024-03-07T12:03:20;14.20;48.10
83553;DHT22;73510;50.866;5.420;2024-03-07T12:05:51;14.10;48.30
83553;DHT22;73510;50.866;5.420;2024-03-07T12:08:18;14.00;48.30
83553;DHT22;73510;50.866;5.420;2024-03-07T12:10:44;14.10;48.20
83553;DHT22;73510;50.866;5.420;2024-03-07T12:13:11;14.10;47.80
83553;DHT22;73510;50.866;5.420;2024-03-07T12:15:39;14.20;47.40
83553;DHT22;73510;50.866;5.420;2024-03-07T12:18:05;14.30;47.90
83553;DHT22;73510;50.866;5.420;2024-03-07T12:20:39;14.40;47.90
83553;DHT22;73510;50.866;5.420;2024-03-07T12:23:07;14.50;47.90
83553;DHT22;73510;50.866;5.420;2024-03-07T12:25:37;14.50;47.60
83553;DHT22;73510;50.866;5.420;2024-03-07T12:28:07;14.40;47.30
83553;DHT22;73510;50.866;5.420;2024-03-07T12:33:18;14.20;46.80
83553;DHT22;73510;50.866;5.420;2024-03-07T12:35:46;14.10;47.40
83553;DHT22;73510;50.866;5.420;2024-03-07T12:38:13;14.00;48.40
83553;DHT22;73510;50.866;5.420;2024-03-07T12:40:43;13.90;47.90
83553;DHT22;73510;50.866;5.420;2024-03-07T12:43:18;13.90;48.20
83553;DHT22;73510;50.866;5.420;2024-03-07T12:45:51;13.70;47.80
83553;DHT22;73510;50.866;5.420;2024-03-07T12:48:18;13.70;48.70
83553;DHT22;73510;50.866;5.420;2024-03-07T12:50:48;13.70;47.40
83553;DHT22;73510;50.866;5.420;2024-03-07T12:53:21;13.60;47.50
83553;DHT22;73510;50.866;5.420;2024-03-07T12:55:47;13.60;48.20
83553;DHT22;73510;50.866;5.420;2024-03-07T12:58:13;13.50;47.90
83553;DHT22;73510;50.866;5.420;2024-03-07T13:00:41;13.50;48.20
83553;DHT22;73510;50.866;5.420;2024-03-07T13:03:07;13.50;49.10
83553;DHT22;73510;50.866;5.420;2024-03-07T13:05:36;13.40;47.70
83553;DHT22;73510;50.866;5.420;2024-03-07T13:08:06;13.40;48.70
83553;DHT22;73510;50.866;5.420;2024-03-07T13:10:38;13.30;48.70
83553;DHT22;73510;50.866;5.420;2024-03-07T13:13:03;13.30;48.60
83553;DHT22;73510;50.866;5.420;2024-03-07T13:15:30;13.40;49.90
83553;DHT22;73510;50.866;5.420;2024-03-07T13:17:56;13.40;48.30
83553;DHT22;73510;50.866;5.420;2024-03-07T13:20:21;13.30;49.00
83553;DHT22;73510;50.866;5.420;2024-03-07T13:22:52;13.30;48.60
83553;DHT22;73510;50.866;5.420;2024-03-07T13:25:23;13.10;48.60
83553;DHT22;73510;50.866;5.420;2024-03-07T13:27:56;13.10;48.30
83553;DHT22;73510;50.866;5.420;2024-03-07T13:30:26;13.10;48.60
83553;DHT22;73510;50.866;5.420;2024-03-07T13:32:58;13.00;48.50
83553;DHT22;73510;50.866;5.420;2024-03-07T13:35:25;13.00;48.30
83553;DHT22;73510;50.866;5.420;2024-03-07T13:37:52;12.80;48.40
83553;DHT22;73510;50.866;5.420;2024-03-07T13:40:21;12.80;49.20
83553;DHT22;73510;50.866;5.420;2024-03-07T13:42:58;12.70;48.60
83553;DHT22;73510;50.866;5.420;2024-03-07T13:45:30;12.70;48.70
83553;DHT22;73510;50.866;5.420;2024-03-07T13:48:14;12.70;49.10
83553;DHT22;73510;50.866;5.420;2024-03-07T13:50:46;12.70;49.20
83553;DHT22;73510;50.866;5.420;2024-03-07T13:53:14;12.60;49.50
83553;DHT22;73510;50.866;5.420;2024-03-07T14:01:31;12.70;49.40
83553;DHT22;73510;50.866;5.420;2024-03-07T14:29:46;12.50;49.00
83553;DHT22;73510;50.866;5.420;2024-03-07T14:32:13;12.50;49.20
83553;DHT22;73510;50.866;5.420;2024-03-07T14:35:05;12.50;49.50
83553;DHT22;73510;50.866;5.420;2024-03-07T14:37:45;12.50;48.90
83553;DHT22;73510;50.866;5.420;2024-03-07T14:40:14;12.50;49.50
83553;DHT22;73510;50.866;5.420;2024-03-07T14:42:46;12.50;48.80
83553;DHT22;73510;50.866;5.420;2024-03-07T14:45:17;12.50;50.00
83553;DHT22;73510;50.866;5.420;2024-03-07T14:47:47;12.50;49.70
83553;DHT22;73510;50.866;5.420;2024-03-07T14:50:15;12.50;50.10
83553;DHT22;73510;50.866;5.420;2024-03-07T14:52:42;12.50;49.70
83553;DHT22;73510;50.866;5.420;2024-03-07T14:55:10;12.50;50.20
83553;DHT22;73510;50.866;5.420;2024-03-07T14:57:40;12.50;50.10
83553;DHT22;73510;50.866;5.420;2024-03-07T15:00:08;12.50;50.00
83553;DHT22;73510;50.866;5.420;2024-03-07T15:02:48;12.50;50.10
83553;DHT22;73510;50.866;5.420;2024-03-07T15:05:17;12.50;49.90
83553;DHT22;73510;50.866;5.420;2024-03-07T15:07:45;12.50;49.60
83553;DHT22;73510;50.866;5.420;2024-03-07T15:10:18;12.50;50.00
83553;DHT22;73510;50.866;5.420;2024-03-07T15:12:46;12.50;50.20
83553;DHT22;73510;50.866;5.420;2024-03-07T15:15:14;12.40;50.60
83553;DHT22;73510;50.866;5.420;2024-03-07T15:17:43;12.40;50.10
83553;DHT22;73510;50.866;5.420;2024-03-07T15:20:11;12.30;50.50
83553;DHT22;73510;50.866;5.420;2024-03-07T15:22:50;12.30;50.50
83553;DHT22;73510;50.866;5.420;2024-03-07T15:25:16;12.30;50.60
83553;DHT22;73510;50.866;5.420;2024-03-07T15:27:44;12.30;49.70
83553;DHT22;73510;50.866;5.420;2024-03-07T15:30:11;12.30;50.30
83553;DHT22;73510;50.866;5.420;2024-03-07T15:32:40;12.20;49.70
83553;DHT22;73510;50.866;5.420;2024-03-07T15:35:08;12.20;48.90
83553;DHT22;73510;50.866;5.420;2024-03-07T15:37:47;12.10;48.60
83553;DHT22;73510;50.866;5.420;2024-03-07T15:40:17;12.10;49.30
83553;DHT22;73510;50.866;5.420;2024-03-07T15:42:48;12.10;49.00
83553;DHT22;73510;50.866;5.420;2024-03-07T15:45:20;12.00;49.30
83553;DHT22;73510;50.866;5.420;2024-03-07T15:47:49;12.00;49.50
83553;DHT22;73510;50.866;5.420;2024-03-07T15:50:16;12.00;50.50
83553;DHT22;73510;50.866;5.420;2024-03-07T15:52:45;12.00;50.00
83553;DHT22;73510;50.866;5.420;2024-03-07T15:55:12;11.90;49.90
83553;DHT22;73510;50.866;5.420;2024-03-07T15:57:47;11.90;50.70
83553;DHT22;73510;50.866;5.420;2024-03-07T16:00:17;11.90;50.00
83553;DHT22;73510;50.866;5.420;2024-03-07T16:03:09;11.90;49.90
83553;DHT22;73510;50.866;5.420;2024-03-07T16:05:39;11.90;50.90
83553;DHT22;73510;50.866;5.420;2024-03-07T16:08:06;11.90;50.60
83553;DHT22;73510;50.866;5.420;2024-03-07T16:10:37;11.80;50.10
83553;DHT22;73510;50.866;5.420;2024-03-07T16:13:10;11.70;50.50
83553;DHT22;73510;50.866;5.420;2024-03-07T16:15:38;11.70;50.30
83553;DHT22;73510;50.866;5.420;2024-03-07T16:18:04;11.70;51.20
83553;DHT22;73510;50.866;5.420;2024-03-07T16:20:32;11.70;51.00
83553;DHT22;73510;50.866;5.420;2024-03-07T16:22:58;11.70;50.20